Time;durP1;ratioP1;P1;durP2;ratioP2;P2;SDS_P1;SDS_P2;PMS_P1;PMS_P2;Temp;Humidity;BMP_temperature;BMP_pressure;BME280_temperature;BME280_humidity;BME280_pressure;Samples;Min_cycle;Max_cycle;Signal;HPM_P1;HPM_P2
2021/10/24 00:00:36;;;;;;;10.32;5.82;;;;;;;;;;5051530;28;20045;-72
2021/10/24 00:03:40;;;;;;;9.30;5.70;;;;;;;;;;5051616;28;20037;-72
2021/10/24 00:06:45;;;;;;;15.07;7.07;;;;;;;;;;5051528;28;20048;-72
2021/10/24 00:09:50;;;;;;;8.98;6.05;;;;;;;;;;5050975;28;20473;-72
2021/10/24 00:12:54;;;;;;;9.40;5.63;;;;;;;;;;5051442;28;20045;-72
2021/10/24 00:15:58;;;;;;;8.70;6.60;;;;;;;;;;5051645;28;20366;-72
2021/10/24 00:19:03;;;;;;;10.10;6.30;;;;;;;;;;5051719;28;20041;-73
2021/10/24 00:22:07;;;;;;;9.02;6.15;;;;;;;;;;5051479;28;20029;-72
2021/10/24 00:25:12;;;;;;;12.18;6.47;;;;;;;;;;5051737;28;20049;-72
2021/10/24 00:28:16;;;;;;;9.95;6.43;;;;;;;;;;5051284;28;20469;-72
2021/10/24 00:31:20;;;;;;;11.77;6.15;;;;;;;;;;5051609;28;20037;-72
2021/10/24 00:34:24;;;;;;;8.68;6.03;;;;;;;;;;5051774;28;20033;-72
2021/10/24 00:37:29;;;;;;;8.07;5.85;;;;;;;;;;5051784;28;20041;-73
2021/10/24 00:40:33;;;;;;;9.27;6.65;;;;;;;;;;5039320;28;20037;-73
2021/10/24 00:43:38;;;;;;;11.70;5.85;;;;;;;;;;5050862;28;20029;-73
2021/10/24 00:46:43;;;;;;;7.90;5.30;;;;;;;;;;5051089;28;20048;-73
2021/10/24 00:49:47;;;;;;;10.27;5.68;;;;;;;;;;5039091;28;20033;-73
2021/10/24 00:52:52;;;;;;;12.02;5.68;;;;;;;;;;5051363;28;20040;-73
2021/10/24 00:55:57;;;;;;;7.95;5.85;;;;;;;;;;5050115;28;20048;-72
2021/10/24 00:59:01;;;;;;;11.15;6.13;;;;;;;;;;5050043;28;20040;-73
2021/10/24 01:02:06;;;;;;;12.80;5.90;;;;;;;;;;5050779;28;20045;-74
2021/10/24 01:05:11;;;;;;;8.07;5.78;;;;;;;;;;5050900;28;20049;-73
2021/10/24 01:08:15;;;;;;;12.70;6.45;;;;;;;;;;5050237;28;20033;-73
2021/10/24 01:11:19;;;;;;;7.03;5.70;;;;;;;;;;5049805;28;20053;-73
2021/10/24 01:14:26;;;;;;;8.15;5.70;;;;;;;;;;5050305;28;20037;-73
2021/10/24 01:17:31;;;;;;;11.00;5.72;;;;;;;;;;5050301;28;20549;-73
2021/10/24 01:20:36;;;;;;;7.43;5.10;;;;;;;;;;5049911;28;20066;-73
2021/10/24 01:23:40;;;;;;;13.60;5.90;;;;;;;;;;5050192;28;20052;-72
2021/10/24 01:26:45;;;;;;;9.15;6.13;;;;;;;;;;5049932;28;20049;-73
2021/10/24 01:29:49;;;;;;;9.63;5.93;;;;;;;;;;5051065;28;20045;-71
2021/10/24 01:32:53;;;;;;;11.95;6.30;;;;;;;;;;5050177;28;20040;-72
2021/10/24 01:36:06;;;;;;;8.27;5.60;;;;;;;;;;5050186;28;20496;-72
2021/10/24 01:39:10;;;;;;;11.27;5.50;;;;;;;;;;5051520;28;20044;-73
2021/10/24 01:42:14;;;;;;;7.45;5.05;;;;;;;;;;5054797;28;20041;-71
2021/10/24 01:45:19;;;;;;;8.73;5.45;;;;;;;;;;5053832;28;20045;-71
2021/10/24 01:48:24;;;;;;;8.75;5.68;;;;;;;;;;5053697;28;20044;-71
2021/10/24 01:51:28;;;;;;;11.45;5.55;;;;;;;;;;5054702;28;20037;-72
2021/10/24 01:54:32;;;;;;;10.30;5.97;;;;;;;;;;5042283;28;20534;-72
2021/10/24 01:57:36;;;;;;;8.07;5.80;;;;;;;;;;5053875;28;20046;-72
2021/10/24 02:00:42;;;;;;;10.52;6.45;;;;;;;;;;5053813;28;20029;-72
2021/10/24 02:03:47;;;;;;;6.75;5.10;;;;;;;;;;5053799;28;20057;-73
2021/10/24 02:07:09;;;;;;;15.48;6.07;;;;;;;;;;5054198;28;20400;-72
2021/10/24 02:10:15;;;;;;;9.27;5.55;;;;;;;;;;5053695;28;20483;-72
2021/10/24 02:13:20;;;;;;;6.75;5.55;;;;;;;;;;5054106;28;20401;-72
2021/10/24 02:16:26;;;;;;;8.18;6.03;;;;;;;;;;5053368;28;20037;-72
2021/10/24 02:19:30;;;;;;;9.52;6.28;;;;;;;;;;5041802;28;20477;-72
2021/10/24 02:22:34;;;;;;;8.98;5.75;;;;;;;;;;5053191;28;20040;-72
2021/10/24 02:25:43;;;;;;;9.90;5.93;;;;;;;;;;5053221;28;20052;-72
2021/10/24 02:28:48;;;;;;;8.13;6.55;;;;;;;;;;5053306;28;20037;-72
2021/10/24 02:31:52;;;;;;;9.80;6.47;;;;;;;;;;5053845;28;20477;-72
2021/10/24 02:35:16;;;;;;;8.98;5.90;;;;;;;;;;5053322;28;20045;-72
2021/10/24 02:38:21;;;;;;;7.78;5.55;;;;;;;;;;5052920;28;20036;-73
2021/10/24 02:41:25;;;;;;;10.05;5.63;;;;;;;;;;5052536;28;20481;-73
2021/10/24 02:44:35;;;;;;;13.23;5.82;;;;;;;;;;5053020;28;20480;-72
2021/10/24 02:47:40;;;;;;;8.57;5.75;;;;;;;;;;5053827;28;20385;-72
2021/10/24 02:50:47;;;;;;;7.32;5.80;;;;;;;;;;5041044;28;20037;-73
2021/10/24 02:53:54;;;;;;;9.15;5.53;;;;;;;;;;5052849;28;20033;-73
2021/10/24 02:57:00;;;;;;;9.52;5.63;;;;;;;;;;5041266;28;20044;-73
2021/10/24 03:00:06;;;;;;;12.15;5.85;;;;;;;;;;5053402;28;20037;-73
2021/10/24 03:03:10;;;;;;;11.68;5.80;;;;;;;;;;5052056;28;20052;-72
2021/10/24 03:06:18;;;;;;;8.38;5.10;;;;;;;;;;5052275;28;20207;-73
2021/10/24 03:09:23;;;;;;;8.13;5.40;;;;;;;;;;5052488;28;20033;-73
2021/10/24 03:12:27;;;;;;;9.52;5.15;;;;;;;;;;5052365;28;20033;-73
2021/10/24 03:15:32;;;;;;;8.35;5.05;;;;;;;;;;5052426;28;20518;-73
2021/10/24 03:18:36;;;;;;;6.90;5.38;;;;;;;;;;5052388;28;20488;-73
2021/10/24 03:21:41;;;;;;;7.88;5.20;;;;;;;;;;5051941;28;20153;-72
2021/10/24 03:24:45;;;;;;;10.23;4.78;;;;;;;;;;5052237;28;20036;-73
2021/10/24 03:27:49;;;;;;;7.47;4.88;;;;;;;;;;5052183;28;20056;-72
2021/10/24 03:30:56;;;;;;;9.80;5.43;;;;;;;;;;5051678;28;20033;-73
2021/10/24 03:34:00;;;;;;;9.60;5.07;;;;;;;;;;5052005;28;20045;-73
2021/10/24 03:37:05;;;;;;;12.20;5.03;;;;;;;;;;5051779;28;20037;-73
2021/10/24 03:40:12;;;;;;;11.57;4.65;;;;;;;;;;5051759;28;20044;-73
2021/10/24 03:43:17;;;;;;;7.63;5.13;;;;;;;;;;5052730;28;20036;-73
2021/10/24 03:46:22;;;;;;;7.63;4.75;;;;;;;;;;5051623;28;20049;-73
2021/10/24 03:49:26;;;;;;;6.38;4.70;;;;;;;;;;5040252;28;20029;-73
2021/10/24 03:52:30;;;;;;;7.47;4.28;;;;;;;;;;5052443;28;20033;-73
2021/10/24 03:55:34;;;;;;;8.32;5.10;;;;;;;;;;5051527;28;20037;-73
2021/10/24 03:58:41;;;;;;;8.10;4.85;;;;;;;;;;5051527;28;20037;-73
2021/10/24 04:01:45;;;;;;;6.72;4.70;;;;;;;;;;5039701;28;20041;-73
2021/10/24 04:04:49;;;;;;;8.18;4.05;;;;;;;;;;5050900;28;20032;-72
2021/10/24 04:07:55;;;;;;;8.63;4.32;;;;;;;;;;5051064;28;20045;-73
2021/10/24 04:10:59;;;;;;;10.48;4.38;;;;;;;;;;5051227;28;20037;-73
2021/10/24 04:14:04;;;;;;;6.50;4.47;;;;;;;;;;5050921;28;20045;-73
2021/10/24 04:17:09;;;;;;;6.20;4.72;;;;;;;;;;5051086;28;20033;-73
2021/10/24 04:20:20;;;;;;;10.23;4.30;;;;;;;;;;5040606;28;20049;-73
2021/10/24 04:23:24;;;;;;;7.43;4.63;;;;;;;;;;5051203;28;20060;-73
2021/10/24 04:26:29;;;;;;;8.52;4.22;;;;;;;;;;5050998;28;20048;-73
2021/10/24 04:29:35;;;;;;;5.97;4.22;;;;;;;;;;5051089;28;20473;-73
2021/10/24 04:32:42;;;;;;;9.27;4.45;;;;;;;;;;5050965;28;20037;-73
2021/10/24 04:35:46;;;;;;;5.40;3.90;;;;;;;;;;5050998;28;20033;-73
2021/10/24 04:38:50;;;;;;;10.35;4.03;;;;;;;;;;5050582;28;20037;-73
2021/10/24 04:41:55;;;;;;;6.13;4.15;;;;;;;;;;5050700;28;20045;-72
2021/10/24 04:45:00;;;;;;;8.88;4.35;;;;;;;;;;5050812;28;20029;-73
2021/10/24 04:48:05;;;;;;;6.38;4.10;;;;;;;;;;5050656;28;20053;-71
2021/10/24 04:51:18;;;;;;;7.65;3.80;;;;;;;;;;5050674;28;20041;-72
2021/10/24 04:54:22;;;;;;;5.55;3.83;;;;;;;;;;5051242;28;20041;-72
2021/10/24 04:57:28;;;;;;;7.03;4.47;;;;;;;;;;5050563;28;20033;-72
2021/10/24 05:00:33;;;;;;;11.57;5.70;;;;;;;;;;5050495;28;20374;-72
2021/10/24 05:03:38;;;;;;;7.50;3.90;;;;;;;;;;5050477;28;20067;-72
2021/10/24 05:06:42;;;;;;;8.40;4.03;;;;;;;;;;5050193;28;20389;-72
2021/10/24 05:09:47;;;;;;;8.52;4.90;;;;;;;;;;5050423;28;20037;-72
2021/10/24 05:12:51;;;;;;;5.57;3.50;;;;;;;;;;5050511;28;20041;-72
2021/10/24 05:15:55;;;;;;;10.77;4.40;;;;;;;;;;5038708;28;20405;-72
2021/10/24 05:19:00;;;;;;;10.07;3.78;;;;;;;;;;5050194;28;20049;-72
2021/10/24 05:22:04;;;;;;;6.40;3.80;;;;;;;;;;5049954;28;20044;-73
2021/10/24 05:25:09;;;;;;;8.70;3.88;;;;;;;;;;5050058;28;20045;-72
2021/10/24 05:28:16;;;;;;;5.22;3.25;;;;;;;;;;5050194;28;20045;-72
2021/10/24 05:31:20;;;;;;;5.47;3.38;;;;;;;;;;5049762;28;20033;-71
2021/10/24 05:34:42;;;;;;;5.18;3.70;;;;;;;;;;5049776;28;20481;-72
2021/10/24 05:37:52;;;;;;;6.15;3.97;;;;;;;;;;5039265;28;20037;-72
2021/10/24 05:40:57;;;;;;;7.32;4.57;;;;;;;;;;5049837;28;20373;-73
2021/10/24 05:44:01;;;;;;;7.40;4.10;;;;;;;;;;5050069;28;20044;-73
2021/10/24 05:47:07;;;;;;;7.72;4.00;;;;;;;;;;5049819;28;20049;-73
2021/10/24 05:50:12;;;;;;;6.47;3.80;;;;;;;;;;5049904;28;20481;-73
2021/10/24 05:53:16;;;;;;;4.68;4.15;;;;;;;;;;5049957;28;20036;-71
2021/10/24 05:56:20;;;;;;;7.55;4.47;;;;;;;;;;5049599;28;20029;-71
2021/10/24 05:59:25;;;;;;;7.50;4.15;;;;;;;;;;5049706;28;20041;-71
2021/10/24 06:02:50;;;;;;;7.05;3.80;;;;;;;;;;5049569;28;20070;-71
2021/10/24 06:05:56;;;;;;;5.57;3.92;;;;;;;;;;5050671;28;20041;-72
2021/10/24 06:09:01;;;;;;;5.47;3.80;;;;;;;;;;5049930;28;20045;-72
2021/10/24 06:12:06;;;;;;;8.23;3.65;;;;;;;;;;5049856;28;20037;-72
2021/10/24 06:15:12;;;;;;;6.75;4.00;;;;;;;;;;5050555;28;20033;-71
2021/10/24 06:18:17;;;;;;;7.03;4.30;;;;;;;;;;5050422;28;20040;-72
2021/10/24 06:21:21;;;;;;;7.90;4.63;;;;;;;;;;5049648;28;20370;-72
2021/10/24 06:24:26;;;;;;;8.93;4.20;;;;;;;;;;5049737;28;20033;-72
2021/10/24 06:27:30;;;;;;;9.45;4.50;;;;;;;;;;5051909;28;20049;-72
2021/10/24 06:30:35;;;;;;;11.65;4.10;;;;;;;;;;5053144;28;20033;-72
2021/10/24 06:33:52;;;;;;;7.03;3.90;;;;;;;;;;5054056;28;20050;-71
2021/10/24 06:37:17;;;;;;;4.97;3.72;;;;;;;;;;5053788;28;20041;-72
2021/10/24 06:40:22;;;;;;;5.35;3.95;;;;;;;;;;5052820;28;20033;-72
2021/10/24 06:43:33;;;;;;;6.40;3.75;;;;;;;;;;5052987;28;20033;-72
2021/10/24 06:46:56;;;;;;;9.65;3.92;;;;;;;;;;5052810;28;20048;-71
2021/10/24 06:50:18;;;;;;;13.15;4.20;;;;;;;;;;5053340;28;20040;-72
2021/10/24 06:53:34;;;;;;;6.10;3.88;;;;;;;;;;5053603;28;20041;-74
2021/10/24 06:56:57;;;;;;;6.57;3.72;;;;;;;;;;5053362;28;20037;-80
2021/10/24 07:00:27;;;;;;;6.22;3.60;;;;;;;;;;5053446;28;20615;-81
2021/10/24 07:03:50;;;;;;;6.50;3.50;;;;;;;;;;5044746;28;20037;-81
2021/10/24 07:07:24;;;;;;;11.45;3.72;;;;;;;;;;5034831;28;20044;-81
2021/10/24 07:10:35;;;;;;;3.22;2.65;;;;;;;;;;5041471;28;20041;-80
2021/10/24 07:13:39;;;;;;;4.07;2.92;;;;;;;;;;5051703;28;20044;-80
2021/10/24 07:16:44;;;;;;;4.38;3.13;;;;;;;;;;5029231;28;20033;-80
2021/10/24 07:19:49;;;;;;;6.18;3.05;;;;;;;;;;5051982;28;20045;-79
2021/10/24 07:22:54;;;;;;;6.95;3.10;;;;;;;;;;5041827;28;20045;-80
2021/10/24 07:26:31;;;;;;;7.05;2.80;;;;;;;;;;5047676;28;20041;-81
2021/10/24 07:29:36;;;;;;;4.63;2.88;;;;;;;;;;5042034;28;20366;-82
2021/10/24 07:32:40;;;;;;;5.07;2.85;;;;;;;;;;5054589;28;20468;-82
2021/10/24 07:36:17;;;;;;;4.03;2.95;;;;;;;;;;5053164;28;20033;-82
2021/10/24 07:39:21;;;;;;;4.22;2.55;;;;;;;;;;5041017;28;20105;-81
2021/10/24 07:42:26;;;;;;;4.80;2.60;;;;;;;;;;5041203;28;20041;-82
2021/10/24 07:45:30;;;;;;;5.00;2.60;;;;;;;;;;5030303;28;20045;-81
2021/10/24 07:48:35;;;;;;;6.30;2.75;;;;;;;;;;5041794;28;20041;-82
2021/10/24 07:51:45;;;;;;;7.30;2.97;;;;;;;;;;5052786;28;20045;-80
2021/10/24 07:54:49;;;;;;;5.78;2.85;;;;;;;;;;5053179;28;20049;-82
2021/10/24 07:57:55;;;;;;;6.32;2.70;;;;;;;;;;5051614;28;20370;-81
2021/10/24 08:01:00;;;;;;;6.75;2.83;;;;;;;;;;5052182;28;20037;-81
2021/10/24 08:04:07;;;;;;;4.03;2.60;;;;;;;;;;5052356;28;20381;-82
2021/10/24 08:07:16;;;;;;;2.83;2.47;;;;;;;;;;5040565;28;20041;-81
2021/10/24 08:10:21;;;;;;;4.15;2.75;;;;;;;;;;5051988;28;20033;-79
2021/10/24 08:13:25;;;;;;;5.15;2.92;;;;;;;;;;5051306;28;20041;-80
2021/10/24 08:16:31;;;;;;;5.95;2.92;;;;;;;;;;5051775;28;20033;-79
2021/10/24 08:19:35;;;;;;;5.13;2.60;;;;;;;;;;5052283;28;20049;-79
2021/10/24 08:22:44;;;;;;;5.22;2.65;;;;;;;;;;5029117;28;20505;-80
2021/10/24 08:25:50;;;;;;;3.97;2.40;;;;;;;;;;5040498;28;20033;-81
2021/10/24 08:28:55;;;;;;;5.18;2.65;;;;;;;;;;5029190;28;20041;-82
2021/10/24 08:32:17;;;;;;;4.90;2.50;;;;;;;;;;5052683;28;20041;-80
2021/10/24 08:35:23;;;;;;;3.60;2.25;;;;;;;;;;5051642;28;20040;-82
2021/10/24 08:38:30;;;;;;;4.93;2.70;;;;;;;;;;5052717;28;20041;-81
2021/10/24 08:41:35;;;;;;;5.90;2.70;;;;;;;;;;5051170;28;20037;-82
2021/10/24 08:44:39;;;;;;;6.85;2.78;;;;;;;;;;5052806;28;20040;-81
2021/10/24 08:47:43;;;;;;;7.00;2.90;;;;;;;;;;5028655;28;20041;-81
2021/10/24 08:50:49;;;;;;;4.18;2.30;;;;;;;;;;5051967;28;20037;-81
2021/10/24 08:53:53;;;;;;;5.22;1.90;;;;;;;;;;5052525;28;20044;-83
2021/10/24 08:56:57;;;;;;;4.20;2.20;;;;;;;;;;5052375;28;20037;-82
2021/10/24 09:00:04;;;;;;;6.03;2.10;;;;;;;;;;5052007;28;20041;-80
2021/10/24 09:03:12;;;;;;;3.83;2.10;;;;;;;;;;5039404;28;20481;-81
2021/10/24 09:06:18;;;;;;;4.65;1.90;;;;;;;;;;5040090;28;20041;-82
2021/10/24 09:09:40;;;;;;;3.63;2.00;;;;;;;;;;5052000;28;20045;-82
2021/10/24 09:13:00;;;;;;;4.53;1.90;;;;;;;;;;5050855;28;20041;-82
2021/10/24 09:16:05;;;;;;;4.47;1.75;;;;;;;;;;5051877;28;20472;-84
2021/10/24 09:19:15;;;;;;;4.35;2.13;;;;;;;;;;5051182;28;20044;-80
2021/10/24 09:22:19;;;;;;;3.53;2.25;;;;;;;;;;5051654;28;20037;-81
2021/10/24 09:25:23;;;;;;;5.75;2.60;;;;;;;;;;5038987;28;20032;-81
2021/10/24 09:28:28;;;;;;;6.38;2.70;;;;;;;;;;5051780;28;20049;-77
2021/10/24 09:31:34;;;;;;;9.07;2.58;;;;;;;;;;5051228;28;20037;-81
2021/10/24 09:34:38;;;;;;;3.72;1.90;;;;;;;;;;5051600;28;20037;-82
2021/10/24 09:38:06;;;;;;;4.88;2.28;;;;;;;;;;5050410;28;20029;-82
2021/10/24 09:41:43;;;;;;;4.63;2.40;;;;;;;;;;5051720;28;20041;-80
2021/10/24 09:45:00;;;;;;;5.13;2.08;;;;;;;;;;5040056;28;20037;-80
2021/10/24 09:48:12;;;;;;;6.90;2.22;;;;;;;;;;5050635;28;20052;-80
2021/10/24 09:51:17;;;;;;;5.47;2.33;;;;;;;;;;5052067;28;20041;-81
2021/10/24 09:54:28;;;;;;;6.35;2.60;;;;;;;;;;5051988;28;20041;-79
2021/10/24 09:57:32;;;;;;;8.18;2.85;;;;;;;;;;5052174;28;20037;-80
2021/10/24 10:00:37;;;;;;;6.95;2.95;;;;;;;;;;5051836;28;20033;-80
2021/10/24 10:03:42;;;;;;;12.90;3.38;;;;;;;;;;5056255;28;20041;-79
2021/10/24 10:06:48;;;;;;;6.60;3.30;;;;;;;;;;5055062;28;20404;-81
2021/10/24 10:09:52;;;;;;;11.20;3.50;;;;;;;;;;5055397;28;20033;-80
2021/10/24 10:13:02;;;;;;;6.93;3.25;;;;;;;;;;5042980;28;20060;-83
2021/10/24 10:16:07;;;;;;;9.13;3.45;;;;;;;;;;5053907;28;20037;-82
2021/10/24 10:19:13;;;;;;;7.85;3.25;;;;;;;;;;5054644;28;20041;-83
2021/10/24 10:22:23;;;;;;;6.35;3.47;;;;;;;;;;5054653;28;20358;-80
2021/10/24 10:25:29;;;;;;;5.72;3.30;;;;;;;;;;5053794;28;20037;-82
2021/10/24 10:28:48;;;;;;;7.50;3.53;;;;;;;;;;5054252;28;20370;-83
2021/10/24 10:32:11;;;;;;;5.43;3.78;;;;;;;;;;5056592;28;20373;-82
2021/10/24 10:35:16;;;;;;;8.60;3.78;;;;;;;;;;5054562;28;20037;-77
2021/10/24 10:38:39;;;;;;;6.93;3.88;;;;;;;;;;5053762;28;20033;-84
2021/10/24 10:41:44;;;;;;;5.50;4.07;;;;;;;;;;5053971;28;20041;-81
2021/10/24 10:45:19;;;;;;;8.10;4.68;;;;;;;;;;5052867;28;20041;-74
2021/10/24 10:48:26;;;;;;;8.18;4.60;;;;;;;;;;5052953;28;20049;-75
2021/10/24 10:51:31;;;;;;;6.45;4.00;;;;;;;;;;5052647;28;20033;-75
2021/10/24 10:54:55;;;;;;;7.38;4.30;;;;;;;;;;5053539;28;20045;-74
2021/10/24 10:58:27;;;;;;;6.32;4.63;;;;;;;;;;5053148;28;20029;-74
2021/10/24 11:01:36;;;;;;;6.32;3.72;;;;;;;;;;5029243;28;20033;-74
2021/10/24 11:04:47;;;;;;;6.05;3.60;;;;;;;;;;5052110;28;20040;-75
2021/10/24 11:07:51;;;;;;;;;;;;;;;;;;5053377;28;20496;-75
2021/10/24 11:10:55;;;;;;;4.00;3.50;;;;;;;;;;5053315;28;19916;-74
2021/10/24 11:14:00;;;;;;;9.07;3.60;;;;;;;;;;5052803;28;20033;-76
2021/10/24 11:17:04;;;;;;;7.05;3.80;;;;;;;;;;5052763;28;20037;-77
2021/10/24 11:20:15;;;;;;;6.40;4.40;;;;;;;;;;5052157;28;20480;-74
2021/10/24 11:23:21;;;;;;;6.32;3.53;;;;;;;;;;5051998;28;20045;-76
2021/10/24 11:26:25;;;;;;;5.82;3.42;;;;;;;;;;5052883;28;20032;-76
2021/10/24 11:29:31;;;;;;;5.60;3.95;;;;;;;;;;5052372;28;20381;-75
2021/10/24 11:32:36;;;;;;;6.28;3.45;;;;;;;;;;5041595;28;20037;-76
2021/10/24 11:35:42;;;;;;;4.45;3.08;;;;;;;;;;5041297;28;20040;-73
2021/10/24 11:38:48;;;;;;;5.32;3.10;;;;;;;;;;5052142;28;20033;-76
2021/10/24 11:42:07;;;;;;;5.65;3.30;;;;;;;;;;5053210;28;20041;-76
2021/10/24 11:45:20;;;;;;;7.20;4.00;;;;;;;;;;5053245;28;20370;-76
2021/10/24 11:48:26;;;;;;;8.25;3.40;;;;;;;;;;5051889;28;20044;-77
2021/10/24 11:51:32;;;;;;;8.07;3.50;;;;;;;;;;5053113;28;20041;-76
2021/10/24 11:54:37;;;;;;;9.70;3.42;;;;;;;;;;5052918;28;20773;-77
2021/10/24 12:01:09;;;;;;;8.30;3.25;;;;;;;;;;5052068;28;20045;-76
2021/10/24 12:04:15;;;;;;;8.68;3.47;;;;;;;;;;5052711;28;20374;-76
2021/10/24 12:07:19;;;;;;;5.35;3.58;;;;;;;;;;5052101;28;20049;-75
2021/10/24 12:10:39;;;;;;;5.78;3.00;;;;;;;;;;5040249;28;20033;-78
2021/10/24 12:13:46;;;;;;;8.40;3.90;;;;;;;;;;5052736;28;20477;-75
2021/10/24 12:16:54;;;;;;;7.45;3.08;;;;;;;;;;5052447;28;20037;-77
2021/10/24 12:20:19;;;;;;;6.88;3.45;;;;;;;;;;5052142;28;20041;-76
2021/10/24 12:23:27;;;;;;;4.90;3.00;;;;;;;;;;5051539;28;20469;-77
2021/10/24 12:26:35;;;;;;;6.25;3.40;;;;;;;;;;5039692;28;20037;-77
2021/10/24 12:29:40;;;;;;;4.18;3.03;;;;;;;;;;5052232;28;20041;-77
2021/10/24 12:32:59;;;;;;;9.55;3.08;;;;;;;;;;5051445;28;20036;-78
2021/10/24 12:36:08;;;;;;;4.22;2.83;;;;;;;;;;5051689;28;20041;-78
2021/10/24 12:39:26;;;;;;;5.20;2.90;;;;;;;;;;5040621;28;20033;-76
2021/10/24 12:42:32;;;;;;;6.97;3.05;;;;;;;;;;5051698;28;20029;-77
2021/10/24 12:45:45;;;;;;;6.03;2.95;;;;;;;;;;5052435;28;20041;-77
2021/10/24 12:48:49;;;;;;;3.33;2.40;;;;;;;;;;5051665;28;20500;-76
2021/10/24 12:52:13;;;;;;;3.08;2.70;;;;;;;;;;5053067;28;20045;-75
2021/10/24 12:55:17;;;;;;;4.70;2.60;;;;;;;;;;5052227;28;20037;-77
2021/10/24 12:58:22;;;;;;;6.97;2.28;;;;;;;;;;5051635;28;20041;-77
2021/10/24 13:01:28;;;;;;;7.95;2.22;;;;;;;;;;5050991;28;20386;-78
2021/10/24 13:04:32;;;;;;;10.40;2.65;;;;;;;;;;5051984;28;20033;-76
2021/10/24 13:07:37;;;;;;;3.97;2.60;;;;;;;;;;5051932;28;20416;-75
2021/10/24 13:10:42;;;;;;;4.30;2.55;;;;;;;;;;5052160;28;20374;-76
2021/10/24 13:13:47;;;;;;;6.20;2.97;;;;;;;;;;5051142;28;20049;-77
2021/10/24 13:16:51;;;;;;;5.68;2.60;;;;;;;;;;5051584;28;20033;-78
2021/10/24 13:19:57;;;;;;;6.18;3.30;;;;;;;;;;5051061;28;20481;-75
2021/10/24 13:23:05;;;;;;;6.53;3.30;;;;;;;;;;5051208;28;20041;-77
2021/10/24 13:26:10;;;;;;;5.50;3.42;;;;;;;;;;5052077;28;20037;-78
2021/10/24 13:29:15;;;;;;;4.75;3.20;;;;;;;;;;5051260;28;20045;-77
2021/10/24 13:32:19;;;;;;;10.48;3.42;;;;;;;;;;5051215;28;20033;-76
2021/10/24 13:35:24;;;;;;;6.32;3.25;;;;;;;;;;5052209;28;20041;-78
2021/10/24 13:38:29;;;;;;;11.63;3.90;;;;;;;;;;5055094;28;20619;-80
2021/10/24 13:41:33;;;;;;;9.20;4.32;;;;;;;;;;5043563;28;20047;-76
2021/10/24 13:44:37;;;;;;;8.30;3.85;;;;;;;;;;5054533;28;20049;-76
2021/10/24 13:47:43;;;;;;;8.23;4.40;;;;;;;;;;5054685;28;20386;-76
2021/10/24 13:50:47;;;;;;;8.93;4.93;;;;;;;;;;5056680;28;20037;-76
2021/10/24 13:53:53;;;;;;;12.50;4.50;;;;;;;;;;5056209;28;20037;-80
2021/10/24 13:56:57;;;;;;;10.05;4.65;;;;;;;;;;5056261;28;20043;-78
2021/10/24 14:00:02;;;;;;;7.70;4.43;;;;;;;;;;5055303;28;20072;-76
2021/10/24 14:03:09;;;;;;;8.40;4.55;;;;;;;;;;5056085;28;20056;-78
2021/10/24 14:06:13;;;;;;;8.50;4.00;;;;;;;;;;5054944;28;20037;-78
2021/10/24 14:09:17;;;;;;;6.90;4.35;;;;;;;;;;5043119;28;20045;-77
2021/10/24 14:12:22;;;;;;;8.82;5.60;;;;;;;;;;5056187;28;20037;-78
2021/10/24 14:15:27;;;;;;;9.38;4.40;;;;;;;;;;5055453;28;20041;-78
2021/10/24 14:18:32;;;;;;;10.27;5.07;;;;;;;;;;5055479;28;20378;-78
2021/10/24 14:21:41;;;;;;;7.38;4.13;;;;;;;;;;5043405;28;20184;-77
2021/10/24 14:24:45;;;;;;;13.25;4.93;;;;;;;;;;5055694;28;20036;-79
2021/10/24 14:27:52;;;;;;;5.50;4.53;;;;;;;;;;5055366;28;20053;-79
2021/10/24 14:31:00;;;;;;;12.65;4.15;;;;;;;;;;5032271;28;20033;-78
2021/10/24 14:34:05;;;;;;;6.95;5.18;;;;;;;;;;5054185;28;20052;-78
2021/10/24 14:37:12;;;;;;;11.18;4.22;;;;;;;;;;5054301;28;20029;-77
2021/10/24 14:40:17;;;;;;;8.65;4.53;;;;;;;;;;5042743;28;20050;-81
2021/10/24 14:43:22;;;;;;;6.97;4.05;;;;;;;;;;5053714;28;20040;-79
2021/10/24 14:46:32;;;;;;;11.18;4.78;;;;;;;;;;5054515;28;20040;-78
2021/10/24 14:49:40;;;;;;;12.60;5.03;;;;;;;;;;5055344;28;20049;-80
2021/10/24 14:52:45;;;;;;;7.55;5.22;;;;;;;;;;5055795;28;20033;-80
2021/10/24 14:55:50;;;;;;;8.18;4.78;;;;;;;;;;5055906;28;20504;-78
2021/10/24 14:58:55;;;;;;;10.57;4.63;;;;;;;;;;5055424;28;20480;-77
2021/10/24 15:02:08;;;;;;;8.73;4.43;;;;;;;;;;5054978;28;20059;-74
2021/10/24 15:05:16;;;;;;;7.78;4.40;;;;;;;;;;5052478;28;20037;-78
2021/10/24 15:08:21;;;;;;;12.25;4.82;;;;;;;;;;5041196;28;20053;-76
2021/10/24 15:11:27;;;;;;;11.40;4.80;;;;;;;;;;5053871;28;20037;-76
2021/10/24 15:14:36;;;;;;;7.47;4.90;;;;;;;;;;5054156;28;20517;-77
2021/10/24 15:17:44;;;;;;;9.30;5.28;;;;;;;;;;5053303;28;20029;-79
2021/10/24 15:24:15;;;;;;;12.85;4.75;;;;;;;;;;5054334;28;20370;-77
2021/10/24 15:27:24;;;;;;;9.27;5.18;;;;;;;;;;5054176;28;20045;-81
2021/10/24 15:30:30;;;;;;;10.35;4.85;;;;;;;;;;5053842;28;20496;-76
2021/10/24 15:33:34;;;;;;;7.22;4.60;;;;;;;;;;5054845;28;20041;-78
2021/10/24 15:36:39;;;;;;;9.00;5.53;;;;;;;;;;5054556;28;20036;-77
2021/10/24 15:39:47;;;;;;;10.60;4.95;;;;;;;;;;5053857;28;20469;-77
2021/10/24 15:42:52;;;;;;;12.75;5.25;;;;;;;;;;5054893;28;20107;-81
2021/10/24 15:46:00;;;;;;;9.55;5.25;;;;;;;;;;5053588;28;20401;-78
2021/10/24 15:49:04;;;;;;;7.78;4.40;;;;;;;;;;5053315;28;20048;-77
2021/10/24 15:52:16;;;;;;;12.30;4.18;;;;;;;;;;5053241;28;20033;-77
2021/10/24 15:55:21;;;;;;;7.15;4.85;;;;;;;;;;5052712;28;20047;-77
2021/10/24 15:58:28;;;;;;;7.53;4.25;;;;;;;;;;5052118;28;20268;-77
2021/10/24 16:01:40;;;;;;;9.43;4.80;;;;;;;;;;5051726;28;20053;-78
2021/10/24 16:04:49;;;;;;;11.68;4.25;;;;;;;;;;5054015;28;20045;-81
2021/10/24 16:08:03;;;;;;;12.25;4.93;;;;;;;;;;5053543;28;20045;-78
2021/10/24 16:11:08;;;;;;;11.27;4.57;;;;;;;;;;5040122;28;20041;-77
2021/10/24 16:14:22;;;;;;;15.45;4.70;;;;;;;;;;5052832;28;20039;-81
2021/10/24 16:17:33;;;;;;;8.18;4.50;;;;;;;;;;5052113;28;20044;-80
2021/10/24 16:20:39;;;;;;;7.78;4.28;;;;;;;;;;5039999;28;20374;-78
2021/10/24 16:23:48;;;;;;;9.45;4.35;;;;;;;;;;5051499;28;20033;-75
2021/10/24 16:27:00;;;;;;;7.57;5.25;;;;;;;;;;5052204;28;20041;-77
2021/10/24 16:30:06;;;;;;;11.50;4.30;;;;;;;;;;5051462;28;20037;-76
2021/10/24 16:33:15;;;;;;;6.68;4.22;;;;;;;;;;5052362;28;20044;-79
2021/10/24 16:36:23;;;;;;;8.80;4.15;;;;;;;;;;5052409;28;20037;-78
2021/10/24 16:39:28;;;;;;;7.10;4.70;;;;;;;;;;5039698;28;20347;-77
2021/10/24 16:42:34;;;;;;;8.05;4.40;;;;;;;;;;5052080;28;20033;-77
2021/10/24 16:45:43;;;;;;;7.43;4.57;;;;;;;;;;5039472;28;20041;-78
2021/10/24 16:48:52;;;;;;;11.35;5.53;;;;;;;;;;5051987;28;20049;-79
2021/10/24 16:51:59;;;;;;;10.82;4.93;;;;;;;;;;5050980;28;20040;-79
2021/10/24 16:55:06;;;;;;;8.48;4.38;;;;;;;;;;5052087;28;20037;-77
2021/10/24 16:58:11;;;;;;;9.77;4.43;;;;;;;;;;5039922;28;20037;-78
2021/10/24 17:01:17;;;;;;;10.02;4.53;;;;;;;;;;5050491;28;20033;-77
2021/10/24 17:04:27;;;;;;;8.82;4.15;;;;;;;;;;5051610;28;20367;-76
2021/10/24 17:07:32;;;;;;;11.20;4.47;;;;;;;;;;5051463;28;20381;-78
2021/10/24 17:10:39;;;;;;;6.00;4.05;;;;;;;;;;5050808;28;20378;-77
2021/10/24 17:13:48;;;;;;;9.07;4.75;;;;;;;;;;5051839;28;20049;-76
2021/10/24 17:16:55;;;;;;;7.15;4.20;;;;;;;;;;5039394;28;20373;-76
2021/10/24 17:20:06;;;;;;;10.73;4.57;;;;;;;;;;5039622;28;20389;-77
2021/10/24 17:23:13;;;;;;;10.57;4.43;;;;;;;;;;5050844;28;20424;-77
2021/10/24 17:26:24;;;;;;;7.75;4.82;;;;;;;;;;5051297;28;20390;-78
2021/10/24 17:29:32;;;;;;;12.68;5.30;;;;;;;;;;5051783;28;20037;-79
2021/10/24 17:32:38;;;;;;;13.57;4.63;;;;;;;;;;5039667;28;20029;-77
2021/10/24 17:35:48;;;;;;;10.52;4.43;;;;;;;;;;5052398;28;20385;-79
2021/10/24 17:38:57;;;;;;;10.50;4.80;;;;;;;;;;5050509;28;20497;-77
2021/10/24 17:42:03;;;;;;;6.30;4.25;;;;;;;;;;5051260;28;20193;-78
2021/10/24 17:45:12;;;;;;;13.57;4.25;;;;;;;;;;5051782;28;20037;-77
2021/10/24 17:48:23;;;;;;;11.38;4.75;;;;;;;;;;5052208;28;20052;-78
2021/10/24 17:51:30;;;;;;;12.90;4.80;;;;;;;;;;5051979;28;20035;-76
2021/10/24 17:54:38;;;;;;;12.32;4.07;;;;;;;;;;5051391;28;20025;-79
2021/10/24 17:57:48;;;;;;;7.38;4.38;;;;;;;;;;5040285;28;20473;-77
2021/10/24 18:01:04;;;;;;;7.30;4.80;;;;;;;;;;5051930;28;20037;-79
2021/10/24 18:04:19;;;;;;;7.30;4.80;;;;;;;;;;5051730;28;20045;-78
2021/10/24 18:07:24;;;;;;;10.77;4.90;;;;;;;;;;5053179;28;20488;-78
2021/10/24 18:10:32;;;;;;;8.40;4.60;;;;;;;;;;5052779;28;20056;-80
2021/10/24 18:13:39;;;;;;;7.93;4.57;;;;;;;;;;5052300;28;20041;-77
2021/10/24 18:16:45;;;;;;;8.30;4.40;;;;;;;;;;5052519;28;20048;-79
2021/10/24 18:19:51;;;;;;;6.18;4.60;;;;;;;;;;5039861;28;20381;-79
2021/10/24 18:22:57;;;;;;;6.07;4.10;;;;;;;;;;5053103;28;20041;-75
2021/10/24 18:26:06;;;;;;;14.20;9.10;;;;;;;;;;5054982;28;20041;-80
2021/10/24 18:29:19;;;;;;;8.45;4.00;;;;;;;;;;5043506;28;20420;-81
2021/10/24 18:32:31;;;;;;;8.93;4.13;;;;;;;;;;5055012;28;20037;-80
2021/10/24 18:35:36;;;;;;;8.20;4.60;;;;;;;;;;5055438;28;20048;-79
2021/10/24 18:38:41;;;;;;;8.63;4.35;;;;;;;;;;5054179;28;20101;-78
2021/10/24 18:41:49;;;;;;;5.45;4.10;;;;;;;;;;5042347;28;20045;-77
2021/10/24 18:44:55;;;;;;;10.00;4.93;;;;;;;;;;5054664;28;20037;-77
2021/10/24 18:48:04;;;;;;;8.57;4.15;;;;;;;;;;5055017;28;20085;-77